Alvaton, GA

1:46 PM EST on December 10, 2016 (GMT -0500)
Georgia Jets Airfield | | Change Station

Elev 870 ft 33.14 °N, 84.61 °W | Updated 17 seconds ago

Clear
Clear
45.5 °F
Feels Like 42 °F
N
7.0
Wind Variable Wind from NE
Gusts 9.0 mph

Today
High -- | Low -- °F
--% Chance of Precip.
Yesterday
High -- | Low -- °F
Precip. -- in
Pressure 30.50 in
Visibility 10.0 miles
Clouds Clear
Windchill 42 °F
Dew Point 21 °F
Humidity 37%
Rainfall 0.00 in
Snow Depth Not available.
7:31 AM 5:31 PM
Waxing Gibbous, 85% visible
METAR KFFC 101753Z AUTO VRB03KT 10SM CLR 07/M07 A3048 RMK AO2 PRESFR SLP328 T00721072 58026
Pressure 30.50 in
Visibility 10.0 miles
Clouds Clear
Windchill 42 °F
Dew Point 21 °F
Humidity 37%
Rainfall 0.00 in
Snow Depth Not available.
7:31 AM 5:31 PM
Waxing Gibbous, 85% visible
METAR KFFC 101753Z AUTO VRB03KT 10SM CLR 07/M07 A3048 RMK AO2 PRESFR SLP328 T00721072 58026

10-Day Weather Forecast

Almanac

Astronomy

Dec. 10, 2016 Rise Set
Actual Time
Civil Twilight
Nautical Twilight
Astronomical Twilight
Moon
Length of Visible Light
Length of Day
Tomorrow will be .
, % of the Moon is Illuminated

Today's Extremes

State Highs State Lows

Community

WunderPhotos

Upload Photos

1,956,620 photos uploaded!

WunderBlog® & News

Nearby

Air Quality

  Air Quality AQ Index Pollutant
Not available.

Snow Depth

Station Depth Elevation

Earthquake Activity

City Distance Mag. Time & Date
Minimum magnitude displayed is 2.5.

Coastal Water Temperatures

Place Temperature

Stations

Nearby Weather Stations

Station Location Temp. Windchill Dew Point Humidity Wind Precip. Elev Updated Type
                   

Watches & Warnings

There are currently no watches in effect.